Terminal Aerodrome Forecast
Issued by NWS Bismarck, ND

Home | Current Version | Previous Version | Text Only | Print | Product List | Glossary Off
Versions: 1 2 3 4 5 6 7 8 9 10 11 12 13

000
FTUS43 KBIS 251128
TAFISN
TAF
KISN 251128Z 2512/2612 31024G35KT P6SM SCT200
     FM252200 31019G27KT P6SM SKC
     FM260000 31009KT P6SM SKC=

USA.gov is the U.S. government's official web portal to all federal, state and local government web resources and services.